Time;durP1;ratioP1;P1;durP2;ratioP2;P2;SDS_P1;SDS_P2;PMS_P1;PMS_P2;Temp;Humidity;BMP_temperature;BMP_pressure;BME280_temperature;BME280_humidity;BME280_pressure;Samples;Min_cycle;Max_cycle;Signal;HPM_P1;HPM_P2
2023/01/16 17:48:08;;;;;;;;;;;22.00;37.70;;;;;;3044753;19;46335;-24
2023/01/16 17:49:08;;;;;;;;;;;20.70;38.80;;;;;;3026675;19;12891;-22
2023/01/16 17:50:21;;;;;;;;;;;20.60;38.80;;;;;;3058809;19;1010;-21
2023/01/16 17:51:23;;;;;;;;;;;20.60;38.90;;;;;;3054830;19;4509;-21
2023/01/16 17:52:24;;;;;;;;;;;20.60;39.00;;;;;;3054264;19;4586;-24
2023/01/16 17:53:26;;;;;;;;;;;20.50;39.00;;;;;;3055064;19;4560;-24
2023/01/16 17:55:50;;;;;;;;;;;20.60;39.00;;;;;;3055215;19;4617;-24
2023/01/16 17:56:51;;;;;;;;;;;20.50;39.00;;;;;;3007243;19;4567;-32
2023/01/16 17:57:52;;;;;;;;;;;20.60;39.00;;;;;;2899785;19;3009050;-23
2023/01/16 17:58:53;;;;;;;;;;;20.50;38.90;;;;;;3051180;19;4701;-24
2023/01/16 17:59:54;;;;;;;;;;;20.60;39.10;;;;;;3055554;19;4401;-24
2023/01/16 18:00:57;;;;;;;;;;;20.60;39.00;;;;;;3056615;19;4531;-23
2023/01/16 18:01:57;;;;;;;;;;;20.60;39.00;;;;;;3056662;19;4607;-23
2023/01/16 18:02:58;;;;;;;;;;;20.60;38.90;;;;;;3056084;19;4517;-23
2023/01/16 18:04:13;;;;;;;;;;;20.60;39.10;;;;;;3056386;19;4562;-23
2023/01/16 18:05:14;;;;;;;;;;;20.60;39.00;;;;;;3055129;19;4551;-24
2023/01/16 18:06:15;;;;;;;;;;;20.60;38.90;;;;;;3054834;19;4539;-30
2023/01/16 18:07:16;;;;;;;;;;;20.60;39.00;;;;;;3054241;19;4451;-25
2023/01/16 18:08:17;;;;;;;;;;;20.60;38.90;;;;;;3053965;19;4393;-24
2023/01/16 18:09:18;;;;;;;;;;;20.60;38.80;;;;;;3052175;19;4583;-23
2023/01/16 18:10:18;;;;;;;;;;;20.60;39.00;;;;;;3051750;19;4365;-21
2023/01/16 18:17:57;;;;;;;;;;;20.60;38.90;;;;;;3019949;19;12673;-23
2023/01/16 18:18:57;;;;;;;;;;;20.60;38.90;;;;;;3054061;19;4509;-23
2023/01/16 18:20:01;;;;;;;;;;;20.60;38.80;;;;;;3055367;19;4484;-23
2023/01/16 18:22:29;;;;;;;;;;;20.50;38.80;;;;;;2950491;19;2004372;-23
2023/01/16 18:23:29;;;;;;;;;;;20.50;38.90;;;;;;3052844;19;4582;-24
2023/01/16 18:24:31;;;;;;;;;;;20.50;38.90;;;;;;3051108;19;4427;-23
2023/01/16 18:25:32;;;;;;;;;;;20.50;38.90;;;;;;3053451;19;4556;-23
2023/01/16 18:26:33;;;;;;;;;;;20.50;38.90;;;;;;3053427;19;4406;-23
2023/01/16 18:27:33;;;;;;;;;;;20.50;39.00;;;;;;3053018;19;4578;-22
2023/01/16 18:28:34;;;;;;;;;;;20.60;39.10;;;;;;3054945;19;4510;-21
2023/01/16 18:29:35;;;;;;;;;;;20.60;38.90;;;;;;3055310;19;4450;-21
2023/01/16 18:30:36;;;;;;;;;;;20.60;38.90;;;;;;3053676;19;4581;-21
2023/01/16 18:31:36;;;;;;;;;;;20.60;38.90;;;;;;3053185;19;4593;-23
2023/01/16 18:32:37;;;;;;;;;;;20.60;38.80;;;;;;3052988;19;4572;-23
2023/01/16 18:33:37;;;;;;;;;;;20.60;38.80;;;;;;3055394;19;4493;-23
2023/01/16 18:34:38;;;;;;;;;;;20.70;38.80;;;;;;3055804;19;4563;-23
2023/01/16 18:35:39;;;;;;;;;;;20.60;38.70;;;;;;3054691;19;4529;-23
2023/01/16 18:36:39;;;;;;;;;;;20.70;38.70;;;;;;3055600;19;4537;-24
2023/01/16 19:02:01;;;;;;;;;;;20.40;38.90;;;;;;3053615;19;4526;-25
2023/01/16 19:03:01;;;;;;;;;;;20.40;39.00;;;;;;3052205;19;4521;-23
2023/01/16 19:04:02;;;;;;;;;;;20.40;39.00;;;;;;3053001;19;4475;-23
2023/01/16 19:05:03;;;;;;;;;;;20.40;39.00;;;;;;3053358;19;4472;-23
2023/01/16 19:06:04;;;;;;;;;;;20.40;39.10;;;;;;3054467;19;4506;-23
2023/01/16 19:07:07;;;;;;;;;;;20.40;38.90;;;;;;3053933;19;4477;-24
2023/01/16 19:08:13;;;;;;;;;;;20.40;38.90;;;;;;3052870;19;4542;-24
2023/01/16 19:09:15;;;;;;;;;;;20.50;39.00;;;;;;3052260;19;4579;-23
2023/01/16 19:10:21;;;;;;;;;;;20.50;38.90;;;;;;3053870;19;4532;-24
2023/01/16 19:11:23;;;;;;;;;;;20.50;38.90;;;;;;3053964;19;4545;-22
2023/01/16 19:12:24;;;;;;;;;;;20.50;38.90;;;;;;3052656;19;4581;-21
2023/01/16 19:13:36;;;;;;;;;;;20.50;38.90;;;;;;3052788;19;4657;-21
2023/01/16 19:14:38;;;;;;;;;;;20.50;38.80;;;;;;3053998;19;4578;-22
2023/01/16 19:16:43;;;;;;;;;;;20.50;38.80;;;;;;3052496;19;4586;-21
2023/01/16 19:16:59;;;;;;;;;;;20.50;38.90;;;;;;3053019;19;4518;-21
2023/01/16 19:18:00;;;;;;;;;;;20.50;38.80;;;;;;3053323;19;4447;-21
2023/01/16 19:19:01;;;;;;;;;;;20.50;38.80;;;;;;3054690;19;4495;-22
2023/01/16 19:20:03;;;;;;;;;;;20.50;38.90;;;;;;3053634;19;4396;-22
2023/01/16 19:21:03;;;;;;;;;;;20.50;38.90;;;;;;3053462;19;4475;-21
2023/01/16 19:22:04;;;;;;;;;;;20.50;38.80;;;;;;3053489;19;4304;-21
2023/01/16 19:23:05;;;;;;;;;;;20.50;38.80;;;;;;3052960;19;4413;-21
2023/01/16 19:24:09;;;;;;;;;;;20.40;38.80;;;;;;3052139;19;8341;-22
2023/01/16 19:25:10;;;;;;;;;;;20.40;38.80;;;;;;3053770;19;4702;-21
2023/01/16 19:26:11;;;;;;;;;;;20.40;38.90;;;;;;3053161;19;4528;-21
2023/01/16 19:27:11;;;;;;;;;;;20.40;38.90;;;;;;3053889;19;4556;-22
2023/01/16 19:28:12;;;;;;;;;;;20.40;38.90;;;;;;3054572;19;4535;-21
2023/01/16 19:29:17;;;;;;;;;;;20.40;38.90;;;;;;3053624;19;1132;-22
2023/01/16 19:30:18;;;;;;;;;;;20.40;38.90;;;;;;3053999;19;4492;-21
2023/01/16 19:31:18;;;;;;;;;;;20.40;38.90;;;;;;3054608;19;4505;-21
2023/01/16 19:32:19;;;;;;;;;;;20.30;38.90;;;;;;3054482;19;4503;-22
2023/01/16 19:33:20;;;;;;;;;;;20.30;38.80;;;;;;3054766;19;4397;-22
2023/01/16 19:34:21;;;;;;;;;;;20.30;38.80;;;;;;3053961;19;4378;-21
2023/01/16 19:35:22;;;;;;;;;;;20.30;38.90;;;;;;3053903;19;4402;-21
2023/01/16 19:36:22;;;;;;;;;;;20.30;39.00;;;;;;3054611;19;4497;-21
2023/01/16 19:37:23;;;;;;;;;;;20.30;38.90;;;;;;3055110;19;4533;-21
2023/01/16 19:38:23;;;;;;;;;;;20.30;39.10;;;;;;3054444;19;4696;-22
2023/01/16 19:39:24;;;;;;;;;;;20.20;38.80;;;;;;3054349;19;4802;-22
2023/01/16 19:40:25;;;;;;;;;;;20.20;38.90;;;;;;3054965;19;4415;-21
2023/01/16 19:46:43;;;;;;;;;;;20.30;39.00;;;;;;3054619;19;4442;-21
2023/01/16 19:47:43;;;;;;;;;;;20.30;38.90;;;;;;3054650;19;4561;-21
2023/01/16 19:48:44;;;;;;;;;;;20.40;39.00;;;;;;3054369;19;4650;-23
2023/01/16 19:49:44;;;;;;;;;;;20.40;38.90;;;;;;3055353;19;4486;-23
2023/01/16 19:50:45;;;;;;;;;;;20.40;38.90;;;;;;3054632;19;4657;-24
2023/01/16 19:51:46;;;;;;;;;;;20.40;38.80;;;;;;3054982;19;4423;-23
2023/01/16 19:52:48;;;;;;;;;;;20.40;38.80;;;;;;3055225;19;4555;-23
2023/01/16 19:53:53;;;;;;;;;;;20.40;38.70;;;;;;3053238;19;4488;-24
2023/01/16 19:54:56;;;;;;;;;;;20.40;38.70;;;;;;3054281;19;4566;-23
2023/01/16 19:55:57;;;;;;;;;;;20.40;38.80;;;;;;3053458;19;4481;-23
2023/01/16 19:56:57;;;;;;;;;;;20.40;38.80;;;;;;3053535;19;4477;-23
2023/01/16 19:57:59;;;;;;;;;;;20.40;38.90;;;;;;3054590;19;4539;-23
2023/01/16 19:58:59;;;;;;;;;;;20.40;38.80;;;;;;3054344;19;4557;-23
2023/01/16 20:00:00;;;;;;;;;;;20.40;38.80;;;;;;3054915;19;4491;-23
2023/01/16 20:01:11;;;;;;;;;;;20.40;38.80;;;;;;3054586;19;4351;-23
2023/01/16 20:02:12;;;;;;;;;;;20.40;38.90;;;;;;3053534;19;4302;-23
2023/01/16 20:03:13;;;;;;;;;;;20.40;38.80;;;;;;3053514;19;4399;-23
2023/01/16 20:04:13;;;;;;;;;;;20.40;38.90;;;;;;3054165;19;4577;-24
2023/01/16 20:05:14;;;;;;;;;;;20.40;38.90;;;;;;3053661;19;4554;-23
2023/01/16 20:06:15;;;;;;;;;;;20.40;38.90;;;;;;3053475;19;4405;-23
2023/01/16 20:07:15;;;;;;;;;;;20.40;38.90;;;;;;3052986;19;4584;-23
2023/01/16 20:08:16;;;;;;;;;;;20.30;38.90;;;;;;3053984;19;4442;-23
2023/01/16 20:09:17;;;;;;;;;;;20.30;38.90;;;;;;3052750;19;4671;-23
2023/01/16 20:10:18;;;;;;;;;;;20.30;38.80;;;;;;3053340;19;4523;-23
2023/01/16 20:11:18;;;;;;;;;;;20.30;38.80;;;;;;3053624;19;4539;-23
2023/01/16 20:12:26;;;;;;;;;;;20.30;38.80;;;;;;3053092;19;4546;-24
2023/01/16 20:13:27;;;;;;;;;;;20.30;38.90;;;;;;3052992;19;4568;-23
2023/01/16 20:14:28;;;;;;;;;;;20.20;38.80;;;;;;3053910;19;4693;-23
2023/01/16 20:15:29;;;;;;;;;;;20.20;38.80;;;;;;3052930;19;4564;-23
2023/01/16 20:16:29;;;;;;;;;;;20.20;38.90;;;;;;3054317;19;4650;-23
2023/01/16 20:17:33;;;;;;;;;;;20.20;39.00;;;;;;3053701;19;4556;-23
2023/01/16 20:18:34;;;;;;;;;;;20.20;38.90;;;;;;3051797;19;4566;-24
2023/01/16 20:19:35;;;;;;;;;;;20.20;39.00;;;;;;3049359;19;4673;-23
2023/01/16 20:20:36;;;;;;;;;;;20.20;38.90;;;;;;3051079;19;4396;-21
2023/01/16 20:21:39;;;;;;;;;;;20.20;38.90;;;;;;3051872;19;4706;-21
2023/01/16 20:22:45;;;;;;;;;;;20.20;39.00;;;;;;3053677;19;4560;-24
2023/01/16 20:23:46;;;;;;;;;;;20.20;39.00;;;;;;3053734;19;4588;-23
2023/01/16 20:24:48;;;;;;;;;;;20.20;38.90;;;;;;3051852;19;4546;-24
2023/01/16 20:25:49;;;;;;;;;;;20.20;39.00;;;;;;3050060;19;4541;-23
2023/01/16 20:26:50;;;;;;;;;;;20.20;38.90;;;;;;3052198;19;4501;-24
2023/01/16 20:27:50;;;;;;;;;;;20.20;38.90;;;;;;3052245;19;4499;-23
2023/01/16 20:28:51;;;;;;;;;;;20.20;38.90;;;;;;3054025;19;4505;-23
2023/01/16 20:29:52;;;;;;;;;;;20.20;38.90;;;;;;3053450;19;4376;-23
2023/01/16 20:30:57;;;;;;;;;;;20.30;39.00;;;;;;3052539;19;4515;-23
2023/01/16 20:31:58;;;;;;;;;;;20.30;39.00;;;;;;3052290;19;4566;-23
2023/01/16 20:32:59;;;;;;;;;;;20.30;38.90;;;;;;3054020;19;4456;-24
2023/01/16 20:33:59;;;;;;;;;;;20.30;38.90;;;;;;3054478;19;4549;-24
2023/01/16 20:35:00;;;;;;;;;;;20.30;39.00;;;;;;3054353;19;4484;-24
2023/01/16 20:36:05;;;;;;;;;;;20.30;38.90;;;;;;3053160;19;4472;-24
2023/01/16 20:37:06;;;;;;;;;;;20.40;38.90;;;;;;3053351;19;4351;-23
2023/01/16 20:38:06;;;;;;;;;;;20.40;38.80;;;;;;3052806;19;4584;-24
2023/01/16 20:39:07;;;;;;;;;;;20.40;38.70;;;;;;3052162;19;4639;-23
2023/01/16 20:40:09;;;;;;;;;;;20.40;38.70;;;;;;3052887;19;4703;-24
2023/01/16 20:41:10;;;;;;;;;;;20.40;38.70;;;;;;3052620;19;4594;-23
2023/01/16 20:46:08;;;;;;;;;;;20.30;38.80;;;;;;3053021;19;4513;-23
2023/01/16 20:47:14;;;;;;;;;;;20.30;38.80;;;;;;3054467;19;4572;-24
2023/01/16 20:48:14;;;;;;;;;;;20.30;38.80;;;;;;3053904;19;4552;-24
2023/01/16 20:49:15;;;;;;;;;;;20.30;38.90;;;;;;3054233;19;4567;-23
2023/01/16 20:50:16;;;;;;;;;;;20.30;38.90;;;;;;3052769;19;4412;-24
2023/01/16 20:51:17;;;;;;;;;;;20.30;39.00;;;;;;3053496;19;4614;-23
2023/01/16 20:52:18;;;;;;;;;;;20.30;39.00;;;;;;3053502;19;4822;-23
2023/01/16 20:53:19;;;;;;;;;;;20.20;38.90;;;;;;3052182;19;4544;-23
2023/01/16 20:54:21;;;;;;;;;;;20.20;38.90;;;;;;3053278;19;4463;-25
2023/01/16 20:55:21;;;;;;;;;;;20.20;39.00;;;;;;3051312;19;4588;-24
2023/01/16 20:56:22;;;;;;;;;;;20.20;39.00;;;;;;3053836;19;4403;-24
2023/01/16 20:57:23;;;;;;;;;;;20.20;39.20;;;;;;3053115;19;4388;-23
2023/01/16 20:58:23;;;;;;;;;;;20.20;39.00;;;;;;3054923;19;4571;-23
2023/01/16 20:59:25;;;;;;;;;;;20.20;39.00;;;;;;3053855;19;4621;-23
2023/01/16 21:00:25;;;;;;;;;;;20.20;39.00;;;;;;3052334;19;4541;-23
2023/01/16 21:01:27;;;;;;;;;;;20.20;39.00;;;;;;3054522;19;4393;-23
2023/01/16 21:02:28;;;;;;;;;;;20.20;39.10;;;;;;3054782;19;4546;-23
2023/01/16 21:03:29;;;;;;;;;;;20.10;39.00;;;;;;3055788;19;4515;-24
2023/01/16 21:04:34;;;;;;;;;;;20.10;39.00;;;;;;3057209;19;4641;-23
2023/01/16 21:05:37;;;;;;;;;;;20.10;39.00;;;;;;3057966;19;4569;-24
2023/01/16 21:06:38;;;;;;;;;;;20.10;39.10;;;;;;3056943;19;4534;-24
2023/01/16 21:07:39;;;;;;;;;;;20.10;39.10;;;;;;3057316;19;4494;-24
2023/01/16 21:08:41;;;;;;;;;;;20.10;39.10;;;;;;3055781;19;4539;-23
2023/01/16 21:09:42;;;;;;;;;;;20.10;39.10;;;;;;3057541;19;4516;-24
2023/01/16 21:10:43;;;;;;;;;;;20.10;39.20;;;;;;3054445;19;4526;-23
2023/01/16 21:14:22;;;;;;;;;;;20.10;39.30;;;;;;2948344;19;2004166;-24
2023/01/16 21:15:22;;;;;;;;;;;20.10;39.90;;;;;;3054406;19;4391;-23
2023/01/16 21:21:47;;;;;;;;;;;20.00;39.30;;;;;;3055994;19;4499;-23
2023/01/16 21:22:48;;;;;;;;;;;20.00;40.00;;;;;;3056741;19;4742;-23
2023/01/16 21:23:49;;;;;;;;;;;20.00;39.30;;;;;;3055959;19;4550;-23
2023/01/16 21:24:52;;;;;;;;;;;20.00;39.30;;;;;;3056508;19;4520;-23
2023/01/16 21:25:54;;;;;;;;;;;20.00;39.40;;;;;;3058338;19;4446;-24
2023/01/16 21:26:55;;;;;;;;;;;20.00;39.30;;;;;;3058224;19;4466;-23
2023/01/16 21:27:56;;;;;;;;;;;20.00;39.40;;;;;;3056110;19;4557;-24
2023/01/16 21:28:57;;;;;;;;;;;20.00;39.40;;;;;;3057880;19;4534;-24
2023/01/16 21:30:03;;;;;;;;;;;20.00;40.10;;;;;;3059405;19;4503;-23
2023/01/16 21:31:08;;;;;;;;;;;19.90;40.10;;;;;;3057160;19;4475;-24
2023/01/16 21:32:08;;;;;;;;;;;19.90;39.50;;;;;;3058962;19;4242;-23
2023/01/16 21:33:09;;;;;;;;;;;19.90;39.40;;;;;;3053987;19;4434;-23
2023/01/16 21:34:10;;;;;;;;;;;19.90;39.40;;;;;;3054626;19;4620;-24
2023/01/16 21:35:11;;;;;;;;;;;19.90;39.50;;;;;;3054334;19;4550;-23
2023/01/16 21:36:12;;;;;;;;;;;19.90;39.40;;;;;;3055808;19;4513;-23
2023/01/16 21:37:13;;;;;;;;;;;19.90;39.50;;;;;;3053827;19;4509;-23
2023/01/16 21:38:14;;;;;;;;;;;19.90;39.50;;;;;;3055805;19;4541;-24
2023/01/16 21:39:15;;;;;;;;;;;19.90;39.70;;;;;;3054793;19;4651;-23
2023/01/16 21:40:16;;;;;;;;;;;19.90;39.60;;;;;;3055633;19;4499;-23
2023/01/16 21:41:17;;;;;;;;;;;19.90;39.50;;;;;;3055136;19;4687;-23
2023/01/16 21:46:28;;;;;;;;;;;19.90;39.60;;;;;;2957156;19;2004181;-23
2023/01/16 21:47:28;;;;;;;;;;;19.90;39.70;;;;;;3058392;19;4448;-24
2023/01/16 21:48:29;;;;;;;;;;;19.80;39.50;;;;;;3056044;19;4576;-24
2023/01/16 21:49:30;;;;;;;;;;;19.80;39.70;;;;;;3060039;19;4564;-23
2023/01/16 21:50:30;;;;;;;;;;;19.90;39.70;;;;;;3059396;19;4651;-24
2023/01/16 21:51:31;;;;;;;;;;;19.80;39.60;;;;;;3058674;19;4418;-23
2023/01/16 21:52:32;;;;;;;;;;;19.80;39.60;;;;;;3057819;19;4411;-23
2023/01/16 21:53:32;;;;;;;;;;;19.80;39.70;;;;;;3058628;19;4569;-23
2023/01/16 21:54:33;;;;;;;;;;;19.80;39.60;;;;;;3058390;19;4564;-24
2023/01/16 21:55:34;;;;;;;;;;;19.80;39.70;;;;;;3059709;19;4373;-23
2023/01/16 21:56:34;;;;;;;;;;;19.80;39.70;;;;;;3056235;19;4554;-23
2023/01/16 21:57:35;;;;;;;;;;;19.80;39.60;;;;;;3056770;19;4532;-24
2023/01/16 21:58:36;;;;;;;;;;;19.80;39.70;;;;;;3053891;19;4469;-23
2023/01/16 21:59:37;;;;;;;;;;;19.80;39.60;;;;;;3055447;19;4630;-23
2023/01/16 22:00:37;;;;;;;;;;;19.80;39.70;;;;;;3055133;19;4552;-24
2023/01/16 22:01:38;;;;;;;;;;;19.80;39.70;;;;;;3055749;19;4454;-24
2023/01/16 22:02:39;;;;;;;;;;;19.80;39.70;;;;;;3057742;19;4428;-23
2023/01/16 22:03:39;;;;;;;;;;;19.80;39.70;;;;;;3057955;19;4522;-23
2023/01/16 22:04:40;;;;;;;;;;;19.70;39.70;;;;;;3058942;19;4367;-23
2023/01/16 22:05:41;;;;;;;;;;;19.80;39.70;;;;;;3058786;19;4579;-23
2023/01/16 22:06:42;;;;;;;;;;;19.70;39.70;;;;;;3058198;19;4624;-24
2023/01/16 22:07:43;;;;;;;;;;;19.70;39.80;;;;;;3060193;19;4489;-24
2023/01/16 22:08:43;;;;;;;;;;;19.70;39.80;;;;;;3057432;19;4567;-24
2023/01/16 22:09:44;;;;;;;;;;;19.70;39.80;;;;;;3053421;19;4556;-23
2023/01/16 22:17:42;;;;;;;;;;;19.70;39.70;;;;;;3054456;19;4600;-23
2023/01/16 22:18:40;;;;;;;;;;;19.70;39.80;;;;;;3058563;19;4440;-24
2023/01/16 22:19:53;;;;;;;;;;;19.70;40.50;;;;;;3059672;19;4761;-23
2023/01/16 22:21:14;;;;;;;;;;;19.70;39.70;;;;;;3059838;19;4693;-23
2023/01/16 22:22:14;;;;;;;;;;;19.60;39.80;;;;;;3059332;19;4303;-23
2023/01/16 22:23:20;;;;;;;;;;;19.70;39.90;;;;;;3055858;19;4483;-23
2023/01/16 22:24:23;;;;;;;;;;;19.70;39.90;;;;;;3055746;19;4565;-23
2023/01/16 22:25:25;;;;;;;;;;;19.60;39.80;;;;;;3054654;19;4353;-24
2023/01/16 22:26:28;;;;;;;;;;;19.60;39.80;;;;;;3051775;19;4543;-25
2023/01/16 22:27:30;;;;;;;;;;;19.60;39.90;;;;;;3054515;19;4917;-23
2023/01/16 22:28:32;;;;;;;;;;;19.60;39.90;;;;;;3054311;19;4386;-23
2023/01/16 22:29:32;;;;;;;;;;;19.60;40.00;;;;;;3056681;19;4568;-24
2023/01/16 22:30:33;;;;;;;;;;;19.60;39.90;;;;;;3056017;19;4592;-23
2023/01/16 22:31:34;;;;;;;;;;;19.60;39.90;;;;;;3055743;19;4614;-23
2023/01/16 22:32:34;;;;;;;;;;;19.60;39.90;;;;;;3056368;19;4398;-23
2023/01/16 22:33:35;;;;;;;;;;;19.60;40.00;;;;;;3054839;19;4375;-23
2023/01/16 22:34:35;;;;;;;;;;;19.60;40.00;;;;;;3055513;19;4639;-23
2023/01/16 22:35:36;;;;;;;;;;;19.60;40.00;;;;;;3056159;19;4544;-23
2023/01/16 22:36:37;;;;;;;;;;;19.60;40.50;;;;;;3055207;19;4557;-24
2023/01/16 22:37:37;;;;;;;;;;;19.60;40.00;;;;;;3056195;19;4570;-24
2023/01/16 22:38:40;;;;;;;;;;;19.60;40.00;;;;;;3055764;19;4550;-23
2023/01/16 22:39:43;;;;;;;;;;;19.60;40.00;;;;;;3055197;19;4596;-23
2023/01/16 22:40:44;;;;;;;;;;;19.50;39.80;;;;;;3055898;19;4517;-23
2023/01/16 22:41:45;;;;;;;;;;;19.60;40.10;;;;;;3055034;19;4555;-24
2023/01/16 22:42:45;;;;;;;;;;;19.50;40.10;;;;;;3055534;19;4582;-23
2023/01/16 22:46:25;;;;;;;;;;;19.50;40.00;;;;;;3056242;19;4582;-24
2023/01/16 22:47:26;;;;;;;;;;;19.50;40.10;;;;;;3055006;19;4535;-23
2023/01/16 22:48:26;;;;;;;;;;;19.50;40.00;;;;;;3055888;19;4525;-24
2023/01/16 22:49:27;;;;;;;;;;;19.50;40.10;;;;;;3054947;19;4562;-23
2023/01/16 22:50:28;;;;;;;;;;;19.50;40.10;;;;;;3056380;19;4527;-23
2023/01/16 22:51:29;;;;;;;;;;;19.50;40.10;;;;;;3055558;19;4553;-23
2023/01/16 22:52:30;;;;;;;;;;;19.50;40.20;;;;;;3056077;19;4488;-23
2023/01/16 22:53:30;;;;;;;;;;;19.50;40.10;;;;;;3055987;19;4579;-24
2023/01/16 22:54:31;;;;;;;;;;;19.50;40.00;;;;;;3056144;19;4541;-23
2023/01/16 22:55:32;;;;;;;;;;;19.50;40.10;;;;;;3055633;19;4520;-24
2023/01/16 22:56:33;;;;;;;;;;;19.50;39.90;;;;;;3055965;19;4574;-23
2023/01/16 22:57:33;;;;;;;;;;;19.50;40.70;;;;;;3056648;19;4755;-23
2023/01/16 22:58:34;;;;;;;;;;;19.50;40.10;;;;;;3056175;19;4663;-23
2023/01/16 22:59:35;;;;;;;;;;;19.50;40.10;;;;;;3055957;19;4667;-23
2023/01/16 23:00:35;;;;;;;;;;;19.50;40.10;;;;;;3055996;19;4556;-23
2023/01/16 23:01:36;;;;;;;;;;;19.40;40.00;;;;;;3056031;19;4387;-24
2023/01/16 23:02:37;;;;;;;;;;;19.40;40.00;;;;;;3056048;19;4379;-23
2023/01/16 23:03:38;;;;;;;;;;;19.40;40.00;;;;;;3056248;19;4522;-23
2023/01/16 23:04:39;;;;;;;;;;;19.40;40.00;;;;;;3054696;19;4621;-23
2023/01/16 23:05:39;;;;;;;;;;;19.40;40.20;;;;;;3055710;19;4557;-28
2023/01/16 23:06:40;;;;;;;;;;;19.40;40.00;;;;;;3056099;19;4575;-23
2023/01/16 23:07:41;;;;;;;;;;;19.40;40.10;;;;;;3056029;19;4505;-23
2023/01/16 23:08:42;;;;;;;;;;;19.40;40.20;;;;;;3055923;19;4487;-23
2023/01/16 23:09:42;;;;;;;;;;;19.40;40.20;;;;;;3055842;19;4705;-23
2023/01/16 23:10:43;;;;;;;;;;;19.40;40.20;;;;;;3055950;19;4472;-23
2023/01/16 23:11:45;;;;;;;;;;;19.40;40.20;;;;;;3055992;19;4642;-23
2023/01/16 23:12:48;;;;;;;;;;;19.40;40.20;;;;;;3055923;19;4452;-23
2023/01/16 23:13:52;;;;;;;;;;;19.40;40.20;;;;;;3055794;19;4511;-23
2023/01/16 23:14:53;;;;;;;;;;;19.40;40.20;;;;;;3053495;19;4438;-23
2023/01/16 23:15:53;;;;;;;;;;;19.40;40.10;;;;;;3054999;19;4593;-23
2023/01/16 23:16:56;;;;;;;;;;;19.40;40.20;;;;;;3055417;19;4350;-23
2023/01/16 23:17:56;;;;;;;;;;;19.40;40.20;;;;;;3055015;19;4517;-23
2023/01/16 23:18:58;;;;;;;;;;;19.40;40.20;;;;;;3054993;19;4584;-23
2023/01/16 23:19:59;;;;;;;;;;;19.40;40.20;;;;;;3054773;19;4533;-23
2023/01/16 23:20:59;;;;;;;;;;;19.40;40.30;;;;;;3054696;19;4604;-23
2023/01/16 23:22:00;;;;;;;;;;;19.40;40.20;;;;;;3054352;19;4498;-23
2023/01/16 23:23:01;;;;;;;;;;;19.40;40.20;;;;;;3055555;19;4495;-24
2023/01/16 23:24:03;;;;;;;;;;;19.40;40.30;;;;;;3054969;19;4509;-25
2023/01/16 23:25:05;;;;;;;;;;;19.40;40.10;;;;;;3054808;19;4532;-23
2023/01/16 23:26:07;;;;;;;;;;;19.40;40.40;;;;;;3055403;19;4378;-24
2023/01/16 23:27:08;;;;;;;;;;;19.40;40.10;;;;;;3053946;19;4680;-23
2023/01/16 23:28:08;;;;;;;;;;;19.30;40.20;;;;;;3054697;19;4536;-24
2023/01/16 23:29:09;;;;;;;;;;;19.30;40.20;;;;;;3053368;19;4611;-23
2023/01/16 23:30:10;;;;;;;;;;;19.30;40.20;;;;;;3054953;19;841;-23
2023/01/16 23:31:12;;;;;;;;;;;19.30;40.20;;;;;;3054068;19;4488;-23
2023/01/16 23:32:13;;;;;;;;;;;19.30;40.30;;;;;;3055244;19;4364;-23
2023/01/16 23:33:13;;;;;;;;;;;19.30;40.20;;;;;;3055399;19;4544;-23
2023/01/16 23:34:17;;;;;;;;;;;19.30;40.20;;;;;;3055495;19;4557;-24
2023/01/16 23:35:18;;;;;;;;;;;19.30;40.20;;;;;;3054889;19;4634;-23
2023/01/16 23:36:20;;;;;;;;;;;19.30;40.20;;;;;;3055717;19;4428;-23
2023/01/16 23:37:21;;;;;;;;;;;19.30;40.20;;;;;;3055148;19;4565;-23
2023/01/16 23:38:21;;;;;;;;;;;19.30;40.40;;;;;;3055032;19;4525;-24
2023/01/16 23:39:22;;;;;;;;;;;19.30;40.30;;;;;;3055342;19;4616;-23
2023/01/16 23:40:23;;;;;;;;;;;19.30;40.30;;;;;;3055357;19;4491;-23
2023/01/16 23:45:22;;;;;;;;;;;19.20;40.30;;;;;;3055314;19;4435;-24
2023/01/16 23:46:35;;;;;;;;;;;19.20;40.40;;;;;;3055451;19;4555;-23
2023/01/16 23:47:35;;;;;;;;;;;19.20;40.30;;;;;;3055242;19;4724;-24
2023/01/16 23:48:36;;;;;;;;;;;19.20;40.40;;;;;;3053846;19;4590;-23
2023/01/16 23:49:50;;;;;;;;;;;19.20;40.40;;;;;;3054883;19;4496;-23
2023/01/16 23:50:51;;;;;;;;;;;19.20;40.30;;;;;;3055595;19;4474;-23
2023/01/16 23:51:52;;;;;;;;;;;19.20;40.30;;;;;;3055111;19;4465;-22
2023/01/16 23:52:52;;;;;;;;;;;19.20;40.20;;;;;;3055486;19;4493;-23
2023/01/16 23:53:53;;;;;;;;;;;19.20;40.10;;;;;;3054531;19;4489;-23
2023/01/16 23:54:54;;;;;;;;;;;19.20;40.30;;;;;;3055339;19;4468;-24
2023/01/16 23:55:54;;;;;;;;;;;19.20;40.30;;;;;;3055436;19;4650;-24
2023/01/16 23:56:55;;;;;;;;;;;19.20;40.30;;;;;;3055287;19;4563;-23
2023/01/16 23:57:56;;;;;;;;;;;19.20;40.30;;;;;;3055284;19;4482;-23
2023/01/16 23:58:58;;;;;;;;;;;19.20;40.30;;;;;;3054838;19;4332;-23
2023/01/16 23:59:59;;;;;;;;;;;19.20;40.40;;;;;;3055366;19;4332;-24
